createdAt,value
2019-04-10T00:02:31.342Z,97520.91
2019-04-10T00:05:11.788Z,97516.00
2019-04-10T00:07:48.005Z,97522.25
2019-04-10T00:10:21.489Z,97521.34
2019-04-10T00:12:56.314Z,97529.73
2019-04-10T00:15:31.159Z,97529.73
2019-04-10T00:18:06.109Z,97529.44
2019-04-10T00:20:42.720Z,97523.90
2019-04-10T00:23:21.301Z,97531.55
2019-04-10T00:25:55.986Z,97528.62
2019-04-10T00:28:31.688Z,97528.45
2019-04-10T00:31:05.316Z,97528.45
2019-04-10T00:33:40.906Z,97528.89
2019-04-10T00:36:16.217Z,97534.40
2019-04-10T00:38:52.155Z,97534.40
2019-04-10T00:41:28.138Z,97536.38
2019-04-10T00:44:03.592Z,97532.13
2019-04-10T00:46:38.622Z,97528.72
2019-04-10T00:49:13.511Z,97528.72
2019-04-10T00:51:48.314Z,97535.14
2019-04-10T00:54:23.730Z,97534.05
2019-04-10T00:56:57.009Z,97527.16
2019-04-10T00:59:32.386Z,97526.41
2019-04-10T01:02:08.001Z,97534.30
2019-04-10T01:04:43.174Z,97530.93
2019-04-10T01:07:18.889Z,97527.66
2019-04-10T01:09:53.491Z,97526.55
2019-04-10T01:12:28.301Z,97527.59
2019-04-10T01:15:04.603Z,97526.53
2019-04-10T01:17:40.242Z,97530.49
2019-04-10T01:20:15.599Z,97527.46
2019-04-10T01:22:50.159Z,97520.69
2019-04-10T01:25:24.718Z,97522.50
2019-04-10T01:28:00.449Z,97531.23
2019-04-10T01:30:35.298Z,97526.88
2019-04-10T01:33:10.378Z,97526.88
2019-04-10T01:35:44.973Z,97523.23
2019-04-10T01:38:19.744Z,97523.66
2019-04-10T01:40:55.279Z,97523.66
2019-04-10T01:43:30.849Z,97522.57
2019-04-10T01:46:06.246Z,97514.61
2019-04-10T01:48:41.868Z,97514.61
2019-04-10T01:51:17.199Z,97518.31
2019-04-10T01:53:52.378Z,97522.44
2019-04-10T01:56:31.749Z,97523.10
2019-04-10T01:59:02.082Z,97510.77
2019-04-10T02:01:42.938Z,97517.30
2019-04-10T02:04:18.441Z,97515.00
2019-04-10T02:06:53.781Z,97515.00
2019-04-10T02:09:27.628Z,97516.97
2019-04-10T02:12:02.303Z,97515.77
2019-04-10T02:14:36.959Z,97508.27
2019-04-10T02:17:10.525Z,97506.73
2019-04-10T02:19:50.262Z,97504.89
2019-04-10T02:22:25.125Z,97513.16
2019-04-10T02:25:41.107Z,97512.39
2019-04-10T02:28:16.119Z,97513.41
2019-04-10T02:30:50.918Z,97515.02
2019-04-10T02:33:25.433Z,97512.67
2019-04-10T02:36:01.380Z,97512.51
2019-04-10T02:38:53.222Z,97511.00
2019-04-10T02:41:14.015Z,97505.44
2019-04-10T02:43:49.144Z,97500.76
2019-04-10T02:46:25.059Z,97500.76
2019-04-10T02:49:00.815Z,97498.19
2019-04-10T02:51:35.906Z,97498.19
2019-04-10T02:54:11.439Z,97502.36
2019-04-10T02:56:47.708Z,97499.28
2019-04-10T02:59:23.357Z,97504.34
2019-04-10T03:01:58.087Z,97504.34
2019-04-10T03:04:33.065Z,97505.28
2019-04-10T03:07:09.476Z,97502.03
2019-04-10T03:10:00.442Z,97502.63
2019-04-10T03:12:21.947Z,97505.88
2019-04-10T03:14:56.766Z,97498.08
2019-04-10T03:17:30.263Z,97498.08
2019-04-10T03:20:07.909Z,97509.39
2019-04-10T03:22:43.028Z,97499.25
2019-04-10T03:25:19.355Z,97498.64
2019-04-10T03:27:56.763Z,97500.26
2019-04-10T03:30:34.633Z,97507.39
2019-04-10T03:33:23.865Z,97498.98
2019-04-10T03:35:56.975Z,97506.18
2019-04-10T03:38:32.147Z,97506.18
2019-04-10T03:41:06.747Z,97504.53
2019-04-10T03:43:39.852Z,97503.63
2019-04-10T03:46:14.455Z,97503.03
2019-04-10T03:48:49.467Z,97498.03
2019-04-10T03:51:24.853Z,97499.41
2019-04-10T03:53:59.563Z,97501.98
2019-04-10T03:56:34.306Z,97498.77
2019-04-10T03:59:11.792Z,97504.00
2019-04-10T04:01:47.222Z,97499.41
2019-04-10T04:04:21.759Z,97494.19
2019-04-10T04:06:55.759Z,97498.31
2019-04-10T04:09:31.167Z,97499.52
2019-04-10T04:12:06.347Z,97502.06
2019-04-10T04:14:41.287Z,97506.62
2019-04-10T04:17:16.306Z,97499.15
2019-04-10T04:19:51.282Z,97501.73
2019-04-10T04:22:29.173Z,97502.30
2019-04-10T04:25:04.575Z,97512.38
2019-04-10T04:27:39.838Z,97510.06
2019-04-10T04:30:15.142Z,97509.93
2019-04-10T04:32:50.487Z,97509.93
2019-04-10T04:35:25.700Z,97514.34
2019-04-10T04:38:00.491Z,97511.66
2019-04-10T04:40:35.650Z,97509.81
2019-04-10T04:43:08.911Z,97516.37
2019-04-10T04:45:44.215Z,97512.99
2019-04-10T04:48:19.482Z,97516.78
2019-04-10T04:50:54.442Z,97511.41
2019-04-10T04:53:30.142Z,97518.70
2019-04-10T04:56:05.386Z,97518.70
2019-04-10T04:58:40.305Z,97520.08
2019-04-10T05:01:15.341Z,97520.08
2019-04-10T05:03:50.530Z,97524.36
2019-04-10T05:06:26.964Z,97532.94
2019-04-10T05:09:02.817Z,97526.38
2019-04-10T05:11:37.029Z,97526.38
2019-04-10T05:14:09.873Z,97541.20
2019-04-10T05:16:43.668Z,97538.94
2019-04-10T05:19:19.011Z,97542.50
2019-04-10T05:21:54.019Z,97541.06
2019-04-10T05:24:29.962Z,97552.48
2019-04-10T05:27:05.642Z,97559.39
2019-04-10T05:32:37.666Z,97564.09
2019-04-10T05:35:12.667Z,97559.42
2019-04-10T05:37:45.857Z,97561.41
2019-04-10T05:40:20.287Z,97561.41
2019-04-10T05:42:55.505Z,97563.78
2019-04-10T05:45:29.632Z,97572.19
2019-04-10T05:48:04.293Z,97570.25
2019-04-10T05:50:39.870Z,97570.14
2019-04-10T05:53:14.535Z,97568.16
2019-04-10T05:55:49.422Z,97571.77
2019-04-10T05:58:24.108Z,97571.20
2019-04-10T06:01:01.018Z,97570.78
2019-04-10T06:03:42.844Z,97571.17
2019-04-10T06:06:17.447Z,97571.17
2019-04-10T06:08:52.254Z,97562.62
2019-04-10T06:11:26.884Z,97571.52
2019-04-10T06:14:01.133Z,97565.59
2019-04-10T06:16:35.683Z,97571.92
2019-04-10T06:19:10.139Z,97571.92
2019-04-10T06:21:44.723Z,97571.16
2019-04-10T06:24:18.326Z,97571.16
2019-04-10T06:26:53.889Z,97568.23
2019-04-10T06:29:29.300Z,97574.06
2019-04-10T06:32:05.233Z,97577.27
2019-04-10T06:34:40.864Z,97571.32
2019-04-10T06:37:15.789Z,97573.15
2019-04-10T06:39:51.131Z,97573.15
2019-04-10T06:42:26.555Z,97575.16
2019-04-10T06:45:01.365Z,97582.65
2019-04-10T06:47:36.208Z,97579.34
2019-04-10T06:50:11.399Z,97576.64
2019-04-10T06:52:47.146Z,97579.50
2019-04-10T06:55:21.882Z,97578.58
2019-04-10T06:57:58.170Z,97572.97
2019-04-10T07:00:33.105Z,97570.24
2019-04-10T07:03:08.594Z,97575.91
2019-04-10T07:05:56.367Z,97574.69
2019-04-10T07:08:22.207Z,97573.52
2019-04-10T07:11:01.803Z,97572.44
2019-04-10T07:13:30.647Z,97574.12
2019-04-10T07:16:06.193Z,97574.12
2019-04-10T07:18:45.897Z,97578.55
2019-04-10T07:21:18.280Z,97583.42
2019-04-10T07:23:57.345Z,97579.72
2019-04-10T07:26:38.131Z,97577.52
2019-04-10T07:29:05.809Z,97576.20
2019-04-10T07:31:39.755Z,97575.50
2019-04-10T07:34:15.113Z,97579.43
2019-04-10T07:36:49.965Z,97588.73
2019-04-10T07:39:28.046Z,97590.99
2019-04-10T07:42:02.058Z,97590.99
2019-04-10T07:44:36.780Z,97595.71
2019-04-10T07:47:09.816Z,97598.08
2019-04-10T07:49:44.298Z,97604.66
2019-04-10T07:52:21.036Z,97597.98
2019-04-10T07:54:56.522Z,97599.19
2019-04-10T07:57:31.285Z,97599.19
2019-04-10T08:00:06.959Z,97610.63
2019-04-10T08:02:42.700Z,97597.58
2019-04-10T08:05:16.643Z,97597.58
2019-04-10T08:07:53.363Z,97601.31
2019-04-10T08:10:28.450Z,97613.58
2019-04-10T08:13:04.419Z,97606.66
2019-04-10T08:15:39.255Z,97617.91
2019-04-10T08:18:14.643Z,97613.70
2019-04-10T08:20:48.873Z,97614.09
2019-04-10T08:23:21.859Z,97611.39
2019-04-10T08:25:58.016Z,97610.67
2019-04-10T08:28:32.846Z,97613.75
2019-04-10T08:31:08.543Z,97609.66
2019-04-10T08:33:44.104Z,97609.02
2019-04-10T08:36:19.307Z,97606.19
2019-04-10T08:38:54.982Z,97608.28
2019-04-10T08:41:29.754Z,97597.17
2019-04-10T08:44:04.464Z,97597.17
2019-04-10T20:39:51.726Z,97864.83
2019-04-10T20:53:22.457Z,97878.09
2019-04-10T21:59:34.629Z,97930.64
2019-04-10T22:02:09.291Z,97930.64
2019-04-10T22:04:43.957Z,97923.98
2019-04-10T22:08:52.103Z,97928.39
2019-04-10T22:13:42.204Z,97932.84
